Terminal Aerodrome Forecast
Issued by NWS Wichita, KS

Home | Current Version | Previous Version | Text Only | Print | Product List | Glossary Off
Versions: 1 2 3 4 5 6 7 8 9 10 11 12 13 14 15 16 17 18 19 20

000
FTUS43 KICT 061512 AAA
TAFICT
TAF AMD
KICT 061512Z 0615/0712 20010KT P6SM SKC
     FM061630 21015G22KT P6SM SCT250
     FM070000 20008KT P6SM SKC
     FM070600 25006KT P6SM SKC=

USA.gov is the U.S. government's official web portal to all federal, state and local government web resources and services.